Time;durP1;ratioP1;P1;durP2;ratioP2;P2;SDS_P1;SDS_P2;PMS_P1;PMS_P2;Temp;Humidity;BMP_temperature;BMP_pressure;BME280_temperature;BME280_humidity;BME280_pressure;Samples;Min_cycle;Max_cycle;Signal;HPM_P1;HPM_P2
2022/10/09 00:01:29;;;;;;;81.95;46.92;;;25.90;99.90;;;;;;5075577;28;20489;-66
2022/10/09 00:03:57;;;;;;;78.22;47.75;;;26.10;99.90;;;;;;5073616;28;20178;-66
2022/10/09 00:06:26;;;;;;;75.65;42.58;;;26.20;99.90;;;;;;5075166;28;20079;-67
2022/10/09 00:08:53;;;;;;;60.50;38.75;;;26.20;99.90;;;;;;5075230;28;20056;-67
2022/10/09 00:11:24;;;;;;;60.42;36.67;;;26.20;99.90;;;;;;5075170;28;20027;-67
2022/10/09 00:13:51;;;;;;;60.25;38.42;;;26.40;99.90;;;;;;5075627;28;20470;-66
2022/10/09 00:16:19;;;;;;;55.15;36.80;;;26.40;99.90;;;;;;5075364;28;20059;-66
2022/10/09 00:18:46;;;;;;;41.22;26.10;;;26.40;99.90;;;;;;5075277;28;20025;-66
2022/10/09 00:21:19;;;;;;;39.72;25.92;;;26.30;99.90;;;;;;5075029;28;20074;-67
2022/10/09 00:23:46;;;;;;;38.60;26.40;;;26.20;99.90;;;;;;5075548;28;20078;-66
2022/10/09 00:26:13;;;;;;;38.17;25.33;;;26.30;99.90;;;;;;5058187;28;20142;-67
2022/10/09 00:28:39;;;;;;;40.83;26.73;;;26.40;99.90;;;;;;5067357;28;20027;-67
2022/10/09 00:31:08;;;;;;;49.45;36.60;;;26.50;99.90;;;;;;5065465;28;20026;-67
2022/10/09 00:33:36;;;;;;;41.95;32.22;;;26.50;99.90;;;;;;5066680;28;20019;-67
2022/10/09 00:36:04;;;;;;;35.58;25.60;;;26.50;99.90;;;;;;5068711;28;20053;-67
2022/10/09 00:38:31;;;;;;;39.72;24.33;;;26.40;99.90;;;;;;5063718;28;20458;-67
2022/10/09 00:40:58;;;;;;;30.00;21.00;;;26.30;99.90;;;;;;5066318;28;20095;-66
2022/10/09 00:43:46;;;;;;;34.13;22.58;;;26.30;99.90;;;;;;5063167;28;20130;-66
2022/10/09 00:46:20;;;;;;;30.17;22.95;;;26.30;99.90;;;;;;5063442;28;20033;-65
2022/10/09 00:48:56;;;;;;;37.30;24.48;;;26.30;99.90;;;;;;5062903;28;20035;-68
2022/10/09 00:51:23;;;;;;;42.35;23.75;;;26.40;99.90;;;;;;5062716;28;20024;-66
2022/10/09 00:53:50;;;;;;;31.23;23.45;;;26.40;99.90;;;;;;5063129;28;20104;-66
2022/10/09 00:56:17;;;;;;;107.53;66.00;;;26.50;99.90;;;;;;5063888;28;20027;-66
2022/10/09 00:58:43;;;;;;;129.25;87.13;;;26.60;99.90;;;;;;5064527;28;20379;-66
2022/10/09 01:01:10;;;;;;;82.45;52.25;;;26.80;99.90;;;;;;5064043;28;20091;-66
2022/10/09 01:03:39;;;;;;;55.30;37.67;;;26.90;99.90;;;;;;5062754;28;20035;-66
2022/10/09 01:06:26;;;;;;;48.90;31.65;;;27.00;99.90;;;;;;5063795;28;20483;-67
2022/10/09 01:09:00;;;;;;;59.60;39.92;;;27.10;99.90;;;;;;5062744;28;20033;-66
2022/10/09 01:11:27;;;;;;;42.40;25.40;;;27.20;99.90;;;;;;5063193;28;20031;-67
2022/10/09 01:14:04;;;;;;;34.35;20.08;;;27.10;99.90;;;;;;5062868;28;20375;-67
2022/10/09 01:16:38;;;;;;;39.15;18.38;;;27.10;99.90;;;;;;5063339;28;20039;-65
2022/10/09 01:19:11;;;;;;;30.70;19.33;;;27.10;99.90;;;;;;5062885;28;20040;-66
2022/10/09 01:21:45;;;;;;;32.10;14.32;;;27.10;99.90;;;;;;5062180;28;20031;-67
2022/10/09 01:24:36;;;;;;;23.67;14.85;;;27.20;99.90;;;;;;5063014;28;20028;-66
2022/10/09 01:27:22;;;;;;;30.83;16.50;;;27.20;99.90;;;;;;5064534;28;20037;-66
2022/10/09 01:29:54;;;;;;;22.80;15.27;;;27.40;99.90;;;;;;5063196;28;20021;-66
2022/10/09 01:32:27;;;;;;;35.42;17.35;;;27.80;99.90;;;;;;5062078;28;20025;-65
2022/10/09 01:34:55;;;;;;;25.50;15.40;;;27.80;99.90;;;;;;5062647;28;20047;-66
2022/10/09 01:37:22;;;;;;;1532.47;927.65;;;27.90;99.90;;;;;;5061894;28;20032;-66
2022/10/09 01:39:51;;;;;;;196.75;147.27;;;28.00;99.90;;;;;;5063051;28;20107;-65
2022/10/09 01:42:20;;;;;;;52.22;35.95;;;27.90;99.90;;;;;;5063776;28;20058;-66
2022/10/09 01:44:47;;;;;;;149.20;92.60;;;27.80;99.90;;;;;;5062743;28;20487;-65
2022/10/09 01:47:17;;;;;;;92.05;56.08;;;27.90;99.90;;;;;;5062178;28;20039;-66
2022/10/09 01:49:56;;;;;;;29.15;17.17;;;28.00;99.90;;;;;;5064683;28;20017;-64
2022/10/09 01:52:48;;;;;;;35.97;22.42;;;27.90;99.90;;;;;;5061926;28;20055;-65
2022/10/09 01:55:25;;;;;;;34.33;21.75;;;27.80;99.90;;;;;;5063962;28;20505;-65
2022/10/09 01:58:02;;;;;;;23.40;14.90;;;28.00;99.90;;;;;;5063339;28;20039;-72
2022/10/09 02:00:33;;;;;;;26.98;16.52;;;27.90;99.90;;;;;;5062861;28;20017;-72
2022/10/09 02:03:03;;;;;;;24.48;16.05;;;28.00;99.90;;;;;;5061741;28;20613;-72
2022/10/09 02:05:31;;;;;;;27.90;16.10;;;28.40;99.90;;;;;;5042665;28;20048;-71
2022/10/09 02:07:58;;;;;;;27.73;15.15;;;28.60;99.90;;;;;;5043422;28;20533;-70
2022/10/09 02:10:25;;;;;;;31.25;15.70;;;28.80;99.90;;;;;;5043752;28;20063;-70
2022/10/09 02:12:58;;;;;;;27.98;18.45;;;28.80;99.90;;;;;;5049528;28;20064;-71
2022/10/09 02:15:27;;;;;;;;;;;28.50;99.90;;;;;;5044499;28;20017;-70
2022/10/09 02:18:00;;;;;;;31.83;19.60;;;28.40;99.90;;;;;;5045427;28;19909;-70
2022/10/09 02:20:32;;;;;;;33.88;18.65;;;28.50;99.90;;;;;;5044546;28;20043;-70
2022/10/09 02:23:01;;;;;;;71.25;46.03;;;28.60;99.90;;;;;;5043196;28;20051;-70
2022/10/09 02:25:28;;;;;;;29.20;20.73;;;28.70;99.90;;;;;;5043797;28;20479;-70
2022/10/09 02:27:55;;;;;;;96.20;64.55;;;28.80;99.90;;;;;;5080897;22;20053;-68
2022/10/09 02:30:26;;;;;;;31.27;21.08;;;28.80;99.90;;;;;;5089054;28;20017;-70
2022/10/09 02:32:53;;;;;;;39.17;21.08;;;28.90;99.90;;;;;;5085019;28;20031;-70
2022/10/09 02:35:20;;;;;;;35.08;19.33;;;29.00;99.90;;;;;;5082347;28;20020;-70
2022/10/09 02:37:48;;;;;;;31.15;20.20;;;29.00;99.90;;;;;;5083201;28;20219;-68
2022/10/09 02:40:14;;;;;;;40.17;17.27;;;29.00;99.90;;;;;;5080469;28;20013;-71
2022/10/09 02:42:41;;;;;;;33.45;18.20;;;29.30;99.90;;;;;;5081730;28;20028;-72
2022/10/09 02:45:08;;;;;;;27.70;14.98;;;29.50;99.90;;;;;;5082340;28;20507;-70
2022/10/09 02:47:35;;;;;;;30.40;16.30;;;29.50;99.90;;;;;;5080334;28;20431;-74
2022/10/09 02:50:01;;;;;;;33.15;18.55;;;29.50;99.90;;;;;;5083521;28;20150;-74
2022/10/09 02:52:28;;;;;;;32.25;14.40;;;29.60;99.90;;;;;;5084988;28;20020;-71
2022/10/09 02:54:54;;;;;;;34.55;14.20;;;29.40;99.90;;;;;;5085302;28;20029;-71
2022/10/09 02:57:21;;;;;;;23.50;14.23;;;29.60;99.90;;;;;;5089433;28;20053;-69
2022/10/09 02:59:47;;;;;;;26.63;13.27;;;29.70;99.90;;;;;;5090685;28;20012;-71
2022/10/09 03:02:14;;;;;;;24.00;13.48;;;29.70;99.90;;;;;;5089631;28;20018;-74
2022/10/09 03:04:40;;;;;;;34.20;16.63;;;29.60;99.90;;;;;;5081724;28;20504;-70
2022/10/09 03:07:07;;;;;;;41.28;20.92;;;29.60;99.90;;;;;;5090544;28;20031;-68
2022/10/09 03:09:33;;;;;;;21.42;12.85;;;29.70;99.90;;;;;;5089059;28;20013;-69
2022/10/09 03:12:00;;;;;;;20.30;13.52;;;29.80;99.90;;;;;;5085687;28;20024;-69
2022/10/09 03:14:26;;;;;;;27.55;14.65;;;29.90;99.90;;;;;;5090318;28;20024;-70
2022/10/09 03:16:53;;;;;;;25.88;15.77;;;30.00;99.90;;;;;;5085520;28;20024;-73
2022/10/09 03:19:19;;;;;;;26.02;16.75;;;29.90;99.90;;;;;;5085967;28;20382;-71
2022/10/09 03:21:46;;;;;;;20.38;14.25;;;29.80;99.90;;;;;;5087261;28;20028;-71
2022/10/09 03:24:13;;;;;;;20.92;14.23;;;29.90;99.90;;;;;;5085076;28;20054;-71
2022/10/09 03:26:39;;;;;;;33.70;22.13;;;30.20;99.90;;;;;;5085372;28;20098;-72
2022/10/09 03:29:06;;;;;;;27.42;18.90;;;30.20;99.90;;;;;;5086520;28;20491;-72
2022/10/09 03:31:32;;;;;;;17.02;11.88;;;30.50;99.90;;;;;;5084729;28;20024;-72
2022/10/09 03:33:59;;;;;;;27.35;15.93;;;30.50;99.90;;;;;;5084379;28;20019;-71
2022/10/09 03:36:25;;;;;;;70.00;44.90;;;30.60;99.90;;;;;;5086905;28;20016;-71
2022/10/09 03:38:52;;;;;;;220.73;154.45;;;30.50;99.90;;;;;;5084736;28;20012;-71
2022/10/09 03:41:18;;;;;;;27.55;19.77;;;30.60;99.90;;;;;;5085276;28;20093;-71
2022/10/09 03:43:45;;;;;;;33.40;20.20;;;30.60;99.90;;;;;;5086350;28;20580;-71
2022/10/09 03:46:11;;;;;;;115.07;94.20;;;30.60;99.90;;;;;;5082141;28;20028;-71
2022/10/09 03:48:38;;;;;;;23.23;15.30;;;30.60;99.90;;;;;;5085258;28;20035;-71
2022/10/09 03:51:05;;;;;;;25.95;16.75;;;30.60;99.90;;;;;;5075238;28;20027;-67
2022/10/09 03:53:31;;;;;;;18.05;10.65;;;30.80;99.90;;;;;;5081866;28;20070;-70
2022/10/09 03:55:58;;;;;;;16.10;10.93;;;30.90;99.90;;;;;;5085209;28;20023;-68
2022/10/09 03:58:25;;;;;;;19.30;9.90;;;30.70;99.90;;;;;;5085420;28;20017;-68
2022/10/09 04:00:52;;;;;;;14.73;10.07;;;30.80;99.90;;;;;;5077405;28;20024;-68
2022/10/09 04:03:19;;;;;;;17.00;9.30;;;30.80;99.90;;;;;;5082166;28;20356;-68
2022/10/09 04:05:45;;;;;;;21.88;9.70;;;30.90;99.90;;;;;;5083447;28;20017;-68
2022/10/09 04:08:12;;;;;;;12.10;9.50;;;30.90;99.90;;;;;;5079162;28;20064;-67
2022/10/09 04:10:39;;;;;;;20.48;10.43;;;30.90;99.90;;;;;;5080903;28;20016;-65
2022/10/09 04:13:05;;;;;;;21.08;9.88;;;31.00;99.90;;;;;;5073383;28;20074;-68
2022/10/09 04:15:32;;;;;;;15.80;10.70;;;30.70;99.90;;;;;;5078804;28;20028;-68
2022/10/09 04:17:58;;;;;;;16.20;9.27;;;30.60;99.90;;;;;;5084289;28;20021;-66
2022/10/09 04:20:25;;;;;;;19.63;9.30;;;30.60;99.90;;;;;;5080692;28;20017;-67
2022/10/09 04:22:51;;;;;;;16.80;9.27;;;30.50;99.90;;;;;;5084139;28;20107;-67
2022/10/09 04:25:18;;;;;;;18.02;10.52;;;30.60;99.90;;;;;;5085131;28;20439;-67
2022/10/09 04:27:44;;;;;;;20.60;10.07;;;30.90;99.90;;;;;;5082964;28;20513;-68
2022/10/09 04:30:11;;;;;;;17.58;9.95;;;31.20;99.90;;;;;;5084208;28;20035;-68
2022/10/09 04:32:38;;;;;;;13.57;9.63;;;31.40;99.90;;;;;;5085147;28;20020;-67
2022/10/09 04:35:05;;;;;;;21.67;10.13;;;31.20;99.90;;;;;;5083015;28;20093;-66
2022/10/09 04:37:32;;;;;;;26.17;12.52;;;31.10;99.90;;;;;;5083953;28;20424;-67
2022/10/09 04:39:58;;;;;;;25.42;14.27;;;30.90;99.90;;;;;;5077595;28;20024;-69
2022/10/09 04:42:25;;;;;;;20.45;12.00;;;30.90;99.90;;;;;;5085020;28;20024;-69
2022/10/09 04:44:51;;;;;;;17.17;11.05;;;30.80;99.90;;;;;;5083627;28;20019;-71
2022/10/09 04:47:18;;;;;;;20.55;10.80;;;30.70;99.90;;;;;;5083251;28;20066;-70
2022/10/09 04:49:44;;;;;;;25.23;10.85;;;30.80;99.90;;;;;;5084429;28;20012;-70
2022/10/09 04:52:11;;;;;;;16.65;10.60;;;30.70;99.90;;;;;;5079925;28;20017;-69
2022/10/09 04:54:37;;;;;;;23.25;9.65;;;30.60;99.90;;;;;;5083522;28;20020;-65
2022/10/09 04:57:04;;;;;;;17.08;10.93;;;30.60;99.90;;;;;;5078259;28;20025;-66
2022/10/09 04:59:30;;;;;;;21.02;9.93;;;30.50;99.90;;;;;;5075680;28;20397;-67
2022/10/09 05:01:57;;;;;;;17.85;9.77;;;30.50;99.90;;;;;;5076405;28;20050;-66
2022/10/09 05:04:23;;;;;;;17.92;10.60;;;30.50;99.90;;;;;;5079573;28;20043;-66
2022/10/09 05:06:50;;;;;;;23.92;11.35;;;30.50;99.90;;;;;;5086859;28;20030;-66
2022/10/09 05:09:16;;;;;;;19.45;10.88;;;30.50;99.90;;;;;;5070934;28;20075;-65
2022/10/09 05:11:43;;;;;;;16.35;9.13;;;30.50;99.90;;;;;;5063970;28;20025;-67
2022/10/09 05:14:10;;;;;;;17.77;10.27;;;30.30;99.90;;;;;;5056739;28;20025;-69
2022/10/09 05:16:36;;;;;;;16.15;9.82;;;30.30;99.90;;;;;;5054019;28;20017;-68
2022/10/09 05:19:03;;;;;;;22.65;9.90;;;30.30;99.90;;;;;;5060299;28;20125;-65
2022/10/09 05:21:30;;;;;;;19.92;10.63;;;30.30;99.90;;;;;;5082471;28;20047;-67
2022/10/09 05:23:57;;;;;;;16.33;9.55;;;30.20;99.90;;;;;;5088530;28;20032;-66
2022/10/09 05:26:25;;;;;;;17.23;11.02;;;30.20;99.90;;;;;;5087611;28;20027;-66
2022/10/09 05:28:52;;;;;;;20.92;13.20;;;30.20;99.90;;;;;;5088998;28;20059;-67
2022/10/09 05:31:25;;;;;;;23.13;16.15;;;30.20;99.90;;;;;;5070491;28;20471;-67
2022/10/09 05:33:52;;;;;;;31.38;18.33;;;30.10;99.90;;;;;;5083966;28;20025;-65
2022/10/09 05:36:18;;;;;;;30.80;16.67;;;30.10;99.90;;;;;;5075137;28;20020;-67
2022/10/09 05:38:45;;;;;;;41.08;24.33;;;30.10;99.90;;;;;;5083232;28;20028;-66
2022/10/09 05:41:15;;;;;;;37.03;17.40;;;30.00;99.90;;;;;;5083075;28;20020;-67
2022/10/09 05:43:44;;;;;;;32.78;17.23;;;30.00;99.90;;;;;;5082370;28;20432;-69
2022/10/09 05:46:16;;;;;;;39.72;19.60;;;29.80;99.90;;;;;;5079707;28;20032;-67
2022/10/09 05:48:45;;;;;;;102.10;71.25;;;29.60;99.90;;;;;;5082385;28;20528;-67
2022/10/09 05:51:31;;;;;;;75.80;47.15;;;29.50;99.90;;;;;;5079644;28;20479;-67
2022/10/09 05:53:58;;;;;;;54.45;31.40;;;29.30;99.90;;;;;;5081293;28;20174;-68
2022/10/09 05:56:26;;;;;;;23.70;13.00;;;29.20;99.90;;;;;;5081944;28;20025;-68
2022/10/09 05:58:55;;;;;;;27.83;15.38;;;29.00;99.90;;;;;;5087789;28;20020;-67
2022/10/09 06:01:24;;;;;;;24.13;12.73;;;28.80;99.90;;;;;;5080928;28;20378;-67
2022/10/09 06:03:53;;;;;;;29.23;13.52;;;28.50;99.90;;;;;;5076672;28;20039;-69
2022/10/09 06:06:21;;;;;;;28.45;13.55;;;28.20;99.90;;;;;;5081998;28;20032;-69
2022/10/09 06:08:47;;;;;;;19.58;11.10;;;28.10;99.90;;;;;;5083391;28;20436;-68
2022/10/09 06:11:18;;;;;;;20.48;12.60;;;28.00;99.90;;;;;;5088080;28;20048;-69
2022/10/09 06:13:45;;;;;;;28.40;18.80;;;28.00;99.90;;;;;;5074122;28;20028;-67
2022/10/09 06:16:13;;;;;;;56.58;31.65;;;28.10;99.90;;;;;;5073597;28;20414;-67
2022/10/09 06:18:41;;;;;;;38.30;20.95;;;28.00;99.90;;;;;;5072973;28;20028;-68
2022/10/09 06:21:08;;;;;;;26.50;14.68;;;27.90;99.90;;;;;;5073156;28;20016;-66
2022/10/09 06:23:35;;;;;;;24.75;13.27;;;27.90;99.90;;;;;;5075587;28;20475;-69
2022/10/09 06:26:05;;;;;;;20.42;13.02;;;28.10;99.90;;;;;;5073514;28;20024;-65
2022/10/09 06:28:32;;;;;;;19.73;13.75;;;28.10;99.90;;;;;;5081708;28;20498;-66
2022/10/09 06:31:10;;;;;;;22.52;14.00;;;28.20;99.90;;;;;;5079570;28;20028;-67
2022/10/09 06:33:39;;;;;;;27.10;14.63;;;28.20;99.90;;;;;;5084361;28;20028;-66
2022/10/09 06:36:11;;;;;;;21.70;13.73;;;28.20;99.90;;;;;;5067283;28;20025;-66
2022/10/09 06:38:38;;;;;;;24.73;13.82;;;28.20;99.90;;;;;;5076142;28;20031;-68
2022/10/09 06:41:19;;;;;;;24.42;14.30;;;28.30;99.90;;;;;;5073374;28;20028;-67
2022/10/09 06:43:58;;;;;;;26.15;13.35;;;28.30;99.90;;;;;;5078196;28;20548;-67
2022/10/09 06:46:29;;;;;;;28.42;17.15;;;28.40;99.90;;;;;;5089133;28;20474;-67
2022/10/09 06:48:55;;;;;;;34.92;19.40;;;28.40;99.90;;;;;;5083760;28;20048;-66
2022/10/09 06:51:24;;;;;;;33.53;20.90;;;28.50;99.90;;;;;;5079370;28;20021;-67
2022/10/09 06:53:53;;;;;;;41.38;25.02;;;28.60;99.90;;;;;;5081217;28;20103;-67
2022/10/09 06:56:21;;;;;;;44.90;23.55;;;28.70;99.90;;;;;;5082816;28;20104;-66
2022/10/09 06:58:48;;;;;;;32.50;19.48;;;28.70;99.90;;;;;;5083521;28;20037;-67
2022/10/09 07:01:17;;;;;;;28.42;16.00;;;29.00;99.90;;;;;;5090997;28;20027;-68
2022/10/09 07:03:45;;;;;;;21.08;11.68;;;29.10;99.90;;;;;;5080075;28;20036;-68
2022/10/09 07:06:12;;;;;;;17.15;10.90;;;29.30;99.90;;;;;;5084517;28;20031;-67
2022/10/09 07:08:41;;;;;;;15.82;9.77;;;29.40;99.90;;;;;;5090433;28;20106;-68
2022/10/09 07:11:13;;;;;;;15.98;9.32;;;29.70;99.90;;;;;;5093746;28;20024;-68
2022/10/09 07:13:41;;;;;;;11.52;7.43;;;29.80;99.90;;;;;;5095798;28;20099;-67
2022/10/09 07:16:09;;;;;;;13.00;7.20;;;29.90;99.90;;;;;;5098725;28;20027;-69
2022/10/09 07:18:36;;;;;;;12.88;6.70;;;30.00;99.90;;;;;;5097824;28;20053;-69
2022/10/09 07:21:07;;;;;;;12.93;7.35;;;30.00;99.90;;;;;;5097939;28;20381;-69
2022/10/09 07:23:35;;;;;;;13.73;6.70;;;30.10;99.90;;;;;;5097654;28;20020;-68
2022/10/09 07:26:08;;;;;;;8.93;5.45;;;30.00;99.90;;;;;;5078987;28;20432;-68
2022/10/09 07:28:37;;;;;;;8.32;6.20;;;29.90;99.90;;;;;;5075999;28;20036;-68
2022/10/09 07:31:04;;;;;;;8.85;6.72;;;29.90;99.90;;;;;;5075842;28;20028;-67
2022/10/09 07:33:31;;;;;;;10.95;6.65;;;29.90;99.90;;;;;;5069170;28;20619;-68
2022/10/09 07:36:00;;;;;;;12.18;7.10;;;29.90;99.90;;;;;;5065636;28;20070;-65
2022/10/09 07:38:26;;;;;;;14.20;6.15;;;29.90;99.90;;;;;;5075732;28;20082;-66
2022/10/09 07:40:53;;;;;;;8.82;5.28;;;29.90;99.90;;;;;;5075989;28;20020;-66
2022/10/09 07:43:21;;;;;;;9.63;5.63;;;29.80;99.90;;;;;;5076028;28;20075;-67
2022/10/09 07:45:47;;;;;;;12.38;5.65;;;29.80;99.90;;;;;;5075955;28;20043;-70
2022/10/09 07:48:14;;;;;;;12.68;6.43;;;29.80;99.90;;;;;;5076130;28;20025;-66
2022/10/09 07:50:41;;;;;;;11.32;7.68;;;29.80;99.90;;;;;;5080635;28;20375;-66
2022/10/09 07:53:07;;;;;;;18.67;6.63;;;29.80;99.90;;;;;;5085413;28;20054;-66
2022/10/09 07:55:34;;;;;;;11.32;7.53;;;29.90;99.90;;;;;;5083127;28;20020;-68
2022/10/09 07:58:01;;;;;;;12.70;7.32;;;29.90;99.90;;;;;;5084956;28;20016;-67
2022/10/09 08:00:27;;;;;;;14.35;7.50;;;29.90;99.90;;;;;;5079390;28;20028;-67
2022/10/09 08:02:55;;;;;;;16.85;8.07;;;29.90;99.90;;;;;;5079347;28;20020;-67
2022/10/09 08:05:21;;;;;;;11.85;7.45;;;29.80;99.90;;;;;;5081614;28;20020;-67
2022/10/09 08:07:47;;;;;;;13.98;7.68;;;29.70;99.90;;;;;;5082506;28;20476;-66
2022/10/09 08:10:14;;;;;;;12.93;7.15;;;29.70;99.90;;;;;;5080049;28;20036;-66
2022/10/09 08:12:41;;;;;;;14.40;7.80;;;29.50;99.90;;;;;;5083494;28;20020;-68
2022/10/09 08:15:08;;;;;;;14.88;8.48;;;29.40;99.90;;;;;;5084430;28;20067;-67
2022/10/09 08:17:34;;;;;;;15.52;8.25;;;29.40;99.90;;;;;;5055723;28;20079;-68
2022/10/09 08:20:01;;;;;;;21.75;10.00;;;29.40;99.90;;;;;;5057242;28;20062;-67
2022/10/09 08:22:27;;;;;;;18.75;9.88;;;29.40;99.90;;;;;;5068213;28;20105;-69
2022/10/09 08:24:54;;;;;;;33.78;17.65;;;29.40;99.90;;;;;;5074304;28;20020;-70
2022/10/09 08:27:21;;;;;;;31.00;17.45;;;29.40;99.90;;;;;;5078582;28;20040;-67
2022/10/09 08:29:48;;;;;;;28.98;16.83;;;29.30;99.90;;;;;;5084330;28;20028;-68
2022/10/09 08:32:14;;;;;;;28.70;16.95;;;29.30;99.90;;;;;;5085045;28;20028;-69
2022/10/09 08:34:41;;;;;;;27.48;15.45;;;29.30;99.90;;;;;;5083494;28;20021;-67
2022/10/09 08:37:08;;;;;;;22.08;13.75;;;29.30;99.90;;;;;;5078552;28;20028;-67
2022/10/09 08:39:34;;;;;;;24.65;14.68;;;29.30;99.90;;;;;;5082832;28;20103;-68
2022/10/09 08:42:02;;;;;;;20.70;14.82;;;29.20;99.90;;;;;;5081193;28;20020;-71
2022/10/09 08:44:35;;;;;;;22.27;14.52;;;29.30;99.90;;;;;;5083848;28;20024;-68
2022/10/09 08:47:06;;;;;;;24.33;14.52;;;29.20;99.90;;;;;;5080378;28;20019;-71
2022/10/09 08:49:47;;;;;;;24.80;14.68;;;29.20;99.90;;;;;;5083330;28;20113;-67
2022/10/09 08:52:33;;;;;;;26.63;16.85;;;29.00;99.90;;;;;;5083541;28;20124;-68
2022/10/09 08:55:23;;;;;;;30.88;20.67;;;28.90;99.90;;;;;;5083494;28;20147;-65
2022/10/09 08:57:54;;;;;;;29.42;17.73;;;28.80;99.90;;;;;;5009002;28;20117;-70
2022/10/09 09:00:26;;;;;;;26.55;16.85;;;28.60;99.90;;;;;;5014438;28;20101;-68
2022/10/09 09:03:27;;;;;;;25.10;18.63;;;28.40;99.90;;;;;;5011646;28;20060;-72
2022/10/09 09:06:02;;;;;;;29.50;18.02;;;28.10;99.90;;;;;;5012745;28;20034;-69
2022/10/09 09:08:50;;;;;;;23.85;18.88;;;27.70;99.90;;;;;;5006674;28;20045;-70
2022/10/09 09:11:18;;;;;;;21.23;13.90;;;27.60;99.90;;;;;;4997059;28;20214;-69
2022/10/09 09:13:51;;;;;;;20.02;13.23;;;27.50;99.90;;;;;;5008231;28;20030;-68
2022/10/09 09:16:21;;;;;;;24.08;15.27;;;27.50;99.90;;;;;;5011008;28;20408;-67
2022/10/09 09:19:04;;;;;;;22.65;14.38;;;27.50;99.90;;;;;;5011343;28;20065;-69
2022/10/09 09:21:50;;;;;;;27.92;18.77;;;27.30;99.90;;;;;;5011424;28;20026;-70
2022/10/09 09:24:27;;;;;;;24.25;15.48;;;27.40;99.90;;;;;;5011282;28;20096;-69
2022/10/09 09:26:58;;;;;;;41.20;22.98;;;27.30;99.90;;;;;;5011421;28;20114;-66
2022/10/09 09:29:26;;;;;;;27.80;14.63;;;27.40;99.90;;;;;;5008692;28;20124;-66
2022/10/09 09:31:58;;;;;;;20.92;13.10;;;27.30;99.90;;;;;;5010962;28;20026;-66
2022/10/09 09:34:38;;;;;;;15.07;10.55;;;27.20;99.90;;;;;;5010898;28;20393;-67
2022/10/09 09:37:04;;;;;;;12.93;10.18;;;26.90;99.90;;;;;;5008899;28;20117;-67
2022/10/09 09:39:33;;;;;;;19.88;10.90;;;26.80;99.90;;;;;;5011941;28;20120;-63
2022/10/09 09:42:09;;;;;;;16.77;10.60;;;26.80;99.90;;;;;;5011917;28;20448;-65
2022/10/09 09:44:42;;;;;;;22.58;10.77;;;26.80;99.90;;;;;;5011839;28;20345;-66
2022/10/09 09:47:19;;;;;;;20.58;12.18;;;26.80;99.90;;;;;;5011739;28;20034;-66
2022/10/09 09:49:58;;;;;;;60.67;37.65;;;26.80;99.90;;;;;;5011755;28;20046;-66
2022/10/09 09:52:30;;;;;;;42.70;22.38;;;26.70;99.90;;;;;;5011448;28;20037;-65
2022/10/09 09:54:58;;;;;;;16.33;9.65;;;26.70;99.90;;;;;;5011611;28;20030;-65
2022/10/09 09:57:38;;;;;;;15.50;10.55;;;26.60;99.90;;;;;;5011231;28;20483;-65
2022/10/09 10:00:15;;;;;;;14.68;9.93;;;26.50;99.90;;;;;;5022425;28;20033;-65
2022/10/09 10:02:41;;;;;;;16.80;11.15;;;26.40;99.90;;;;;;5053150;28;20025;-65
2022/10/09 10:05:33;;;;;;;13.50;9.82;;;26.40;99.90;;;;;;5053272;28;20534;-65
2022/10/09 10:07:59;;;;;;;14.90;9.70;;;26.10;99.90;;;;;;5053020;28;20106;-65
2022/10/09 10:10:27;;;;;;;16.95;9.30;;;26.10;99.90;;;;;;5053292;28;20028;-66
2022/10/09 10:12:59;;;;;;;31.00;17.67;;;26.10;99.90;;;;;;5053125;28;20028;-66
2022/10/09 10:15:28;;;;;;;;;;;26.20;99.90;;;;;;5053277;28;20055;-65
2022/10/09 10:17:57;;;;;;;21.60;14.23;;;26.10;99.90;;;;;;5053145;28;19904;-66
2022/10/09 10:20:24;;;;;;;37.92;28.48;;;26.10;99.90;;;;;;5053058;28;20013;-67
2022/10/09 10:22:53;;;;;;;19.55;14.60;;;25.90;99.90;;;;;;5052858;28;20025;-66
2022/10/09 10:25:24;;;;;;;20.77;11.57;;;26.00;99.90;;;;;;5052987;28;20028;-66
2022/10/09 10:27:59;;;;;;;32.75;21.27;;;25.90;99.90;;;;;;5052537;28;20045;-66
2022/10/09 10:30:25;;;;;;;38.72;24.67;;;25.80;99.90;;;;;;5060951;28;20032;-66
2022/10/09 10:32:52;;;;;;;22.45;14.43;;;25.90;99.90;;;;;;5081005;28;20024;-65
2022/10/09 10:35:22;;;;;;;23.50;15.13;;;25.90;99.90;;;;;;5076286;28;20421;-69
2022/10/09 10:37:58;;;;;;;34.90;24.05;;;25.90;99.90;;;;;;5079829;28;20107;-69
2022/10/09 10:40:33;;;;;;;22.98;15.63;;;25.90;99.90;;;;;;5078467;28;20048;-69
2022/10/09 10:43:00;;;;;;;24.50;17.88;;;25.80;99.90;;;;;;5078656;28;20029;-66
2022/10/09 10:45:53;;;;;;;20.15;14.15;;;25.80;99.90;;;;;;5081607;28;20035;-69
2022/10/09 10:48:28;;;;;;;17.42;12.88;;;25.80;99.90;;;;;;4982819;28;20034;-69
2022/10/09 10:51:18;;;;;;;17.60;12.65;;;25.80;99.90;;;;;;4988691;28;20030;-68
2022/10/09 10:53:46;;;;;;;18.63;14.00;;;25.80;99.90;;;;;;4989985;28;20030;-69
2022/10/09 10:56:27;;;;;;;23.80;15.13;;;25.90;99.90;;;;;;4995716;28;20134;-69
2022/10/09 10:59:15;;;;;;;63.33;46.50;;;25.80;99.90;;;;;;4995318;28;20062;-69
2022/10/09 11:01:53;;;;;;;28.70;22.27;;;25.80;99.90;;;;;;4990856;28;20058;-70
2022/10/09 11:04:29;;;;;;;46.63;33.60;;;25.80;99.90;;;;;;4985537;28;20461;-69
2022/10/09 11:07:06;;;;;;;42.70;32.95;;;25.90;99.90;;;;;;4987345;28;20600;-69
2022/10/09 11:09:43;;;;;;;26.25;20.20;;;25.90;99.90;;;;;;4989194;28;20034;-68
2022/10/09 11:12:27;;;;;;;33.78;26.65;;;25.80;99.90;;;;;;4981834;28;20100;-69
2022/10/09 11:15:04;;;;;;;24.95;19.13;;;25.90;99.90;;;;;;4985997;28;20098;-68
2022/10/09 11:17:45;;;;;;;33.38;22.27;;;25.90;99.90;;;;;;4987051;28;20097;-67
2022/10/09 11:20:13;;;;;;;30.10;19.80;;;26.00;99.90;;;;;;5081321;28;20029;-68
2022/10/09 11:22:40;;;;;;;31.77;22.05;;;26.10;99.90;;;;;;5086793;28;20256;-69
2022/10/09 11:25:28;;;;;;;30.98;22.83;;;26.10;99.90;;;;;;5084351;28;20024;-68
2022/10/09 11:28:06;;;;;;;59.28;50.65;;;26.00;99.90;;;;;;5003235;28;20088;-68
2022/10/09 11:30:57;;;;;;;24.65;18.75;;;25.90;99.90;;;;;;5004484;28;20121;-67
2022/10/09 11:33:34;;;;;;;55.88;25.40;;;25.90;99.90;;;;;;4927342;29;20035;-69
2022/10/09 11:36:13;;;;;;;34.35;25.73;;;25.80;99.90;;;;;;4926851;28;20137;-65
2022/10/09 11:38:47;;;;;;;46.33;31.92;;;25.70;99.90;;;;;;4926711;29;20130;-68
2022/10/09 11:41:15;;;;;;;28.83;19.00;;;25.70;99.90;;;;;;4926166;29;20053;-69
2022/10/09 11:44:11;;;;;;;34.28;19.55;;;25.70;99.90;;;;;;4925261;29;20035;-68
2022/10/09 11:46:43;;;;;;;33.17;19.23;;;25.80;99.90;;;;;;4897698;29;20040;-68
2022/10/09 11:49:16;;;;;;;;;;;25.70;99.90;;;;;;4892981;29;20033;-68
2022/10/09 11:51:56;;;;;;;29.33;19.25;;;25.60;99.90;;;;;;4897197;29;20357;-68
2022/10/09 11:54:26;;;;;;;23.88;18.17;;;25.70;99.90;;;;;;4896679;29;20032;-69
2022/10/09 11:56:56;;;;;;;24.15;14.98;;;25.70;99.90;;;;;;4898095;29;20073;-65
2022/10/09 11:59:29;;;;;;;22.23;15.38;;;25.60;99.90;;;;;;4898094;29;20036;-71
2022/10/09 12:01:58;;;;;;;20.90;13.75;;;25.70;99.90;;;;;;4897989;29;20041;-69
2022/10/09 12:04:34;;;;;;;21.10;13.52;;;25.70;99.90;;;;;;4922365;29;20047;-68
2022/10/09 12:07:03;;;;;;;21.08;13.50;;;25.80;99.90;;;;;;4935435;29;20395;-69
2022/10/09 12:09:31;;;;;;;20.10;15.98;;;25.90;99.90;;;;;;4935897;29;20082;-67
2022/10/09 12:12:06;;;;;;;22.23;14.80;;;25.90;99.90;;;;;;4936062;29;20098;-69
2022/10/09 12:14:34;;;;;;;23.60;15.45;;;25.90;99.90;;;;;;4935194;29;20119;-67
2022/10/09 12:17:01;;;;;;;19.83;14.75;;;26.10;99.90;;;;;;4935890;29;20032;-68
2022/10/09 12:19:41;;;;;;;25.33;18.23;;;26.10;99.90;;;;;;4935800;29;20031;-68
2022/10/09 12:22:26;;;;;;;29.75;18.33;;;26.10;99.90;;;;;;4933607;29;20043;-68
2022/10/09 12:24:57;;;;;;;23.05;16.77;;;26.10;99.90;;;;;;4955821;28;20041;-68
2022/10/09 12:27:26;;;;;;;26.58;16.50;;;26.10;99.90;;;;;;4963451;28;20630;-67
2022/10/09 12:30:03;;;;;;;24.90;16.55;;;26.10;99.90;;;;;;5000881;28;20399;-68
2022/10/09 12:32:37;;;;;;;26.15;16.13;;;26.10;99.90;;;;;;5084509;28;20138;-68
2022/10/09 12:35:27;;;;;;;28.90;17.05;;;26.00;99.90;;;;;;5096145;28;20032;-69
2022/10/09 12:37:54;;;;;;;23.48;16.90;;;26.00;99.90;;;;;;5095505;28;20016;-67
2022/10/09 12:40:24;;;;;;;20.83;14.82;;;26.00;99.90;;;;;;5085002;28;20063;-69
2022/10/09 12:42:52;;;;;;;22.67;15.00;;;26.00;99.90;;;;;;5075136;28;20039;-68
2022/10/09 12:45:24;;;;;;;25.13;15.48;;;26.00;99.90;;;;;;5074696;28;20029;-68